sensor_id;sensor_type;location;lat;lon;timestamp;pressure;altitude;pressure_sealevel;temperature;humidity
42621;BME280;28252;53.336;-6.298;2023-12-20T00:00:28;101576.78;;;18.09;100.00
42621;BME280;28252;53.336;-6.298;2023-12-20T00:01:01;101565.16;;;18.09;100.00
42621;BME280;28252;53.336;-6.298;2023-12-20T00:01:34;101575.09;;;18.08;100.00
42621;BME280;28252;53.336;-6.298;2023-12-20T00:02:10;101573.38;;;18.07;100.00
42621;BME280;28252;53.336;-6.298;2023-12-20T00:02:43;101583.44;;;18.05;100.00
42621;BME280;28252;53.336;-6.298;2023-12-20T00:03:20;101575.34;;;18.05;100.00
42621;BME280;28252;53.336;-6.298;2023-12-20T00:03:53;101558.31;;;18.05;100.00
42621;BME280;28252;53.336;-6.298;2023-12-20T00:04:29;101569.94;;;18.05;100.00
42621;BME280;28252;53.336;-6.298;2023-12-20T00:05:03;101580.75;;;18.05;100.00
42621;BME280;28252;53.336;-6.298;2023-12-20T00:05:38;101579.00;;;18.04;100.00
42621;BME280;28252;53.336;-6.298;2023-12-20T00:06:14;101547.69;;;18.03;100.00
42621;BME280;28252;53.336;-6.298;2023-12-20T00:06:48;101564.69;;;18.04;100.00
42621;BME280;28252;53.336;-6.298;2023-12-20T00:07:24;101574.75;;;18.02;100.00
42621;BME280;28252;53.336;-6.298;2023-12-20T00:08:03;101564.97;;;18.01;100.00
42621;BME280;28252;53.336;-6.298;2023-12-20T00:08:36;101562.25;;;18.01;100.00
42621;BME280;28252;53.336;-6.298;2023-12-20T00:09:09;101562.25;;;18.01;100.00
42621;BME280;28252;53.336;-6.298;2023-12-20T00:09:45;101555.31;;;17.98;100.00
42621;BME280;28252;53.336;-6.298;2023-12-20T00:10:21;101563.41;;;17.98;100.00
42621;BME280;28252;53.336;-6.298;2023-12-20T00:10:55;101561.69;;;17.97;100.00
42621;BME280;28252;53.336;-6.298;2023-12-20T00:11:26;101569.91;;;17.96;100.00
42621;BME280;28252;53.336;-6.298;2023-12-20T00:12:01;101573.59;;;17.95;100.00
42621;BME280;28252;53.336;-6.298;2023-12-20T00:12:37;101570.16;;;17.92;100.00
42621;BME280;28252;53.336;-6.298;2023-12-20T00:13:10;101559.38;;;17.92;100.00
42621;BME280;28252;53.336;-6.298;2023-12-20T00:13:46;101569.31;;;17.92;100.00
42621;BME280;28252;53.336;-6.298;2023-12-20T00:14:17;101563.09;;;17.91;100.00
42621;BME280;28252;53.336;-6.298;2023-12-20T00:14:54;101565.06;;;17.89;100.00
42621;BME280;28252;53.336;-6.298;2023-12-20T00:19:24;101559.19;;;17.84;100.00
42621;BME280;28252;53.336;-6.298;2023-12-20T00:19:56;101571.78;;;17.84;100.00
42621;BME280;28252;53.336;-6.298;2023-12-20T00:20:29;101566.53;;;17.82;100.00
42621;BME280;28252;53.336;-6.298;2023-12-20T00:21:02;101569.34;;;17.81;100.00
42621;BME280;28252;53.336;-6.298;2023-12-20T00:21:34;101573.75;;;17.82;100.00
42621;BME280;28252;53.336;-6.298;2023-12-20T00:23:11;101574.03;;;17.79;100.00
42621;BME280;28252;53.336;-6.298;2023-12-20T00:23:47;101566.06;;;17.77;100.00
42621;BME280;28252;53.336;-6.298;2023-12-20T00:24:19;101575.16;;;17.76;100.00
42621;BME280;28252;53.336;-6.298;2023-12-20T00:24:53;101565.34;;;17.75;100.00
42621;BME280;28252;53.336;-6.298;2023-12-20T00:25:29;101570.88;;;17.73;100.00
42621;BME280;28252;53.336;-6.298;2023-12-20T00:26:02;101561.09;;;17.72;100.00
42621;BME280;28252;53.336;-6.298;2023-12-20T00:26:33;101573.69;;;17.72;100.00
42621;BME280;28252;53.336;-6.298;2023-12-20T00:27:06;101545.06;;;17.71;100.00
42621;BME280;28252;53.336;-6.298;2023-12-20T00:27:38;101562.94;;;17.72;100.00
42621;BME280;28252;53.336;-6.298;2023-12-20T00:28:09;101561.25;;;17.71;100.00
42621;BME280;28252;53.336;-6.298;2023-12-20T00:28:42;101563.94;;;17.71;100.00
42621;BME280;28252;53.336;-6.298;2023-12-20T00:29:53;101550.72;;;17.68;100.00
42621;BME280;28252;53.336;-6.298;2023-12-20T00:30:27;101550.59;;;17.69;100.00
42621;BME280;28252;53.336;-6.298;2023-12-20T00:31:01;101554.97;;;17.70;100.00
42621;BME280;28252;53.336;-6.298;2023-12-20T00:31:38;101555.25;;;17.67;100.00
42621;BME280;28252;53.336;-6.298;2023-12-20T00:32:12;101557.97;;;17.67;100.00
42621;BME280;28252;53.336;-6.298;2023-12-20T00:32:49;101553.53;;;17.66;100.00
42621;BME280;28252;53.336;-6.298;2023-12-20T00:33:23;101548.16;;;17.66;100.00
42621;BME280;28252;53.336;-6.298;2023-12-20T00:33:54;101558.94;;;17.66;100.00
42621;BME280;28252;53.336;-6.298;2023-12-20T00:34:26;101560.91;;;17.64;100.00
42621;BME280;28252;53.336;-6.298;2023-12-20T00:35:03;101567.00;;;17.66;100.00
42621;BME280;28252;53.336;-6.298;2023-12-20T00:35:36;101569.00;;;17.64;100.00
42621;BME280;28252;53.336;-6.298;2023-12-20T00:36:10;101566.28;;;17.64;100.00
42621;BME280;28252;53.336;-6.298;2023-12-20T00:36:44;101566.28;;;17.64;100.00
42621;BME280;28252;53.336;-6.298;2023-12-20T00:37:23;101566.28;;;17.64;100.00
42621;BME280;28252;53.336;-6.298;2023-12-20T00:37:58;101574.38;;;17.64;100.00
42621;BME280;28252;53.336;-6.298;2023-12-20T00:38:32;101565.41;;;17.64;100.00
42621;BME280;28252;53.336;-6.298;2023-12-20T00:39:05;101562.88;;;17.62;100.00
42621;BME280;28252;53.336;-6.298;2023-12-20T00:39:39;101569.97;;;17.63;100.00
42621;BME280;28252;53.336;-6.298;2023-12-20T00:40:12;101558.34;;;17.63;100.00
42621;BME280;28252;53.336;-6.298;2023-12-20T00:40:47;101566.44;;;17.63;100.00
42621;BME280;28252;53.336;-6.298;2023-12-20T00:41:22;101568.28;;;17.62;100.00
42621;BME280;28252;53.336;-6.298;2023-12-20T00:41:56;101566.56;;;17.61;100.00
42621;BME280;28252;53.336;-6.298;2023-12-20T00:42:32;101567.41;;;17.62;100.00
42621;BME280;28252;53.336;-6.298;2023-12-20T00:43:03;101567.41;;;17.62;100.00
42621;BME280;28252;53.336;-6.298;2023-12-20T00:43:34;101573.66;;;17.62;100.00
42621;BME280;28252;53.336;-6.298;2023-12-20T00:44:10;101573.66;;;17.62;100.00
42621;BME280;28252;53.336;-6.298;2023-12-20T00:44:41;101578.03;;;17.63;100.00
42621;BME280;28252;53.336;-6.298;2023-12-20T00:45:19;101573.66;;;17.62;100.00
42621;BME280;28252;53.336;-6.298;2023-12-20T00:45:53;101578.03;;;17.63;100.00
42621;BME280;28252;53.336;-6.298;2023-12-20T00:47:15;101577.19;;;17.63;100.00
42621;BME280;28252;53.336;-6.298;2023-12-20T00:47:50;101579.06;;;17.62;100.00
42621;BME280;28252;53.336;-6.298;2023-12-20T00:48:21;101578.16;;;17.62;100.00
42621;BME280;28252;53.336;-6.298;2023-12-20T00:48:58;101573.66;;;17.62;100.00
42621;BME280;28252;53.336;-6.298;2023-12-20T00:49:35;101574.50;;;17.63;100.00
42621;BME280;28252;53.336;-6.298;2023-12-20T00:54:13;101582.47;;;17.64;100.00
42621;BME280;28252;53.336;-6.298;2023-12-20T00:54:49;101583.44;;;17.63;100.00
42621;BME280;28252;53.336;-6.298;2023-12-20T00:55:23;101570.81;;;17.64;100.00
42621;BME280;28252;53.336;-6.298;2023-12-20T00:55:59;101577.06;;;17.64;100.00
42621;BME280;28252;53.336;-6.298;2023-12-20T00:56:33;101574.38;;;17.64;100.00
42621;BME280;28252;53.336;-6.298;2023-12-20T00:57:06;101571.69;;;17.64;100.00
42621;BME280;28252;53.336;-6.298;2023-12-20T00:57:46;101576.94;;;17.66;100.00
42621;BME280;28252;53.336;-6.298;2023-12-20T00:58:19;101573.38;;;17.65;100.00
42621;BME280;28252;53.336;-6.298;2023-12-20T00:58:53;101567.97;;;17.65;100.00
42621;BME280;28252;53.336;-6.298;2023-12-20T00:59:26;101565.16;;;17.67;100.00
42621;BME280;28252;53.336;-6.298;2023-12-20T01:04:52;101571.13;;;17.70;100.00
42621;BME280;28252;53.336;-6.298;2023-12-20T01:05:23;101560.22;;;17.72;100.00
42621;BME280;28252;53.336;-6.298;2023-12-20T01:05:54;101564.78;;;17.71;100.00
42621;BME280;28252;53.336;-6.298;2023-12-20T01:06:29;101554.84;;;17.72;100.00
42621;BME280;28252;53.336;-6.298;2023-12-20T01:07:00;101565.50;;;17.73;100.00
42621;BME280;28252;53.336;-6.298;2023-12-20T01:07:38;101553.88;;;17.73;100.00
42621;BME280;28252;53.336;-6.298;2023-12-20T01:08:19;101564.50;;;17.74;100.00
42621;BME280;28252;53.336;-6.298;2023-12-20T01:08:52;101561.81;;;17.74;100.00
42621;BME280;28252;53.336;-6.298;2023-12-20T01:09:30;101564.50;;;17.74;100.00
42621;BME280;28252;53.336;-6.298;2023-12-20T01:10:07;101558.13;;;17.76;100.00
42621;BME280;28252;53.336;-6.298;2023-12-20T01:10:43;101561.56;;;17.78;100.00
42621;BME280;28252;53.336;-6.298;2023-12-20T01:11:20;101551.63;;;17.78;100.00
42621;BME280;28252;53.336;-6.298;2023-12-20T01:11:53;101554.31;;;17.78;100.00
42621;BME280;28252;53.336;-6.298;2023-12-20T01:12:25;101550.78;;;17.78;100.00
42621;BME280;28252;53.336;-6.298;2023-12-20T01:12:56;101552.47;;;17.79;100.00
42621;BME280;28252;53.336;-6.298;2023-12-20T01:13:27;101550.50;;;17.81;100.00
42621;BME280;28252;53.336;-6.298;2023-12-20T01:14:04;101550.50;;;17.81;100.00
42621;BME280;28252;53.336;-6.298;2023-12-20T01:14:43;101560.28;;;17.82;100.00
42621;BME280;28252;53.336;-6.298;2023-12-20T01:15:21;101548.53;;;17.83;100.00
42621;BME280;28252;53.336;-6.298;2023-12-20T01:15:54;101555.63;;;17.84;100.00
42621;BME280;28252;53.336;-6.298;2023-12-20T01:16:31;101561.72;;;17.86;100.00
42621;BME280;28252;53.336;-6.298;2023-12-20T01:17:04;101555.63;;;17.84;100.00
42621;BME280;28252;53.336;-6.298;2023-12-20T01:17:45;101557.34;;;17.85;100.00
42621;BME280;28252;53.336;-6.298;2023-12-20T01:18:20;101559.94;;;17.86;100.00
42621;BME280;28252;53.336;-6.298;2023-12-20T01:18:56;101555.25;;;17.88;100.00
42621;BME280;28252;53.336;-6.298;2023-12-20T01:19:27;101547.03;;;17.90;100.00
42621;BME280;28252;53.336;-6.298;2023-12-20T01:20:03;101563.09;;;17.91;100.00
42621;BME280;28252;53.336;-6.298;2023-12-20T01:20:34;101545.06;;;17.92;100.00
42621;BME280;28252;53.336;-6.298;2023-12-20T01:25:45;101551.34;;;18.02;100.00
42621;BME280;28252;53.336;-6.298;2023-12-20T01:26:22;101554.88;;;18.03;100.00
42621;BME280;28252;53.336;-6.298;2023-12-20T01:26:57;101547.69;;;18.03;100.00
42621;BME280;28252;53.336;-6.298;2023-12-20T01:27:31;101543.00;;;18.05;100.00
42621;BME280;28252;53.336;-6.298;2023-12-20T01:28:05;101547.53;;;18.05;100.00
42621;BME280;28252;53.336;-6.298;2023-12-20T01:28:38;101550.94;;;18.07;100.00
42621;BME280;28252;53.336;-6.298;2023-12-20T01:29:09;101550.94;;;18.07;100.00
42621;BME280;28252;53.336;-6.298;2023-12-20T01:29:40;101547.25;;;18.08;100.00
42621;BME280;28252;53.336;-6.298;2023-12-20T01:30:16;101547.25;;;18.08;100.00
42621;BME280;28252;53.336;-6.298;2023-12-20T01:30:49;101546.28;;;18.09;100.00
42621;BME280;28252;53.336;-6.298;2023-12-20T01:31:23;101555.19;;;18.09;100.00
42621;BME280;28252;53.336;-6.298;2023-12-20T01:31:54;101555.19;;;18.09;100.00
42621;BME280;28252;53.336;-6.298;2023-12-20T01:33:09;101547.81;;;18.11;100.00
42621;BME280;28252;53.336;-6.298;2023-12-20T01:33:42;101550.69;;;18.10;100.00
42621;BME280;28252;53.336;-6.298;2023-12-20T01:34:15;101553.22;;;18.11;100.00
42621;BME280;28252;53.336;-6.298;2023-12-20T01:34:48;101546.84;;;18.13;100.00
42621;BME280;28252;53.336;-6.298;2023-12-20T01:35:22;101541.47;;;18.13;100.00
42621;BME280;28252;53.336;-6.298;2023-12-20T01:35:53;101545.88;;;18.14;100.00
42621;BME280;28252;53.336;-6.298;2023-12-20T01:36:29;101540.47;;;18.14;100.00
42621;BME280;28252;53.336;-6.298;2023-12-20T01:37:05;101547.56;;;18.15;100.00
42621;BME280;28252;53.336;-6.298;2023-12-20T01:37:42;101547.56;;;18.15;100.00
42621;BME280;28252;53.336;-6.298;2023-12-20T01:38:16;101554.66;;;18.16;100.00
42621;BME280;28252;53.336;-6.298;2023-12-20T01:38:52;101552.94;;;18.15;100.00
42621;BME280;28252;53.336;-6.298;2023-12-20T01:39:25;101554.66;;;18.16;100.00
42621;BME280;28252;53.336;-6.298;2023-12-20T01:39:56;101560.06;;;18.16;100.00
42621;BME280;28252;53.336;-6.298;2023-12-20T01:40:28;101552.94;;;18.15;100.00
42621;BME280;28252;53.336;-6.298;2023-12-20T01:41:04;101556.53;;;18.15;100.00
42621;BME280;28252;53.336;-6.298;2023-12-20T01:41:41;101549.28;;;18.16;100.00
42621;BME280;28252;53.336;-6.298;2023-12-20T01:42:15;101547.44;;;18.16;100.00
42621;BME280;28252;53.336;-6.298;2023-12-20T01:43:33;101552.69;;;18.18;100.00
42621;BME280;28252;53.336;-6.298;2023-12-20T01:44:06;101551.72;;;18.19;100.00
42621;BME280;28252;53.336;-6.298;2023-12-20T01:44:37;101556.09;;;18.20;100.00
42621;BME280;28252;53.336;-6.298;2023-12-20T01:45:11;101557.09;;;18.19;100.00
42621;BME280;28252;53.336;-6.298;2023-12-20T01:45:45;101554.28;;;18.20;100.00
42621;BME280;28252;53.336;-6.298;2023-12-20T01:46:21;101558.66;;;18.21;100.00
42621;BME280;28252;53.336;-6.298;2023-12-20T01:46:55;101545.19;;;18.21;100.00
42621;BME280;28252;53.336;-6.298;2023-12-20T01:47:29;101554.13;;;18.22;100.00
42621;BME280;28252;53.336;-6.298;2023-12-20T01:48:03;101548.75;;;18.22;100.00
42621;BME280;28252;53.336;-6.298;2023-12-20T01:48:35;101554.13;;;18.22;100.00
42621;BME280;28252;53.336;-6.298;2023-12-20T01:49:11;101547.75;;;18.23;100.00
42621;BME280;28252;53.336;-6.298;2023-12-20T01:53:47;101545.75;;;18.25;100.00
42621;BME280;28252;53.336;-6.298;2023-12-20T01:54:22;101520.63;;;18.24;100.00
42621;BME280;28252;53.336;-6.298;2023-12-20T01:58:37;101539.38;;;18.26;100.00
42621;BME280;28252;53.336;-6.298;2023-12-20T01:59:14;101548.44;;;18.25;100.00
42621;BME280;28252;53.336;-6.298;2023-12-20T01:59:50;101549.31;;;18.25;100.00
42621;BME280;28252;53.336;-6.298;2023-12-20T02:00:21;101549.31;;;18.25;100.00
42621;BME280;28252;53.336;-6.298;2023-12-20T02:00:54;101540.38;;;18.25;100.00
42621;BME280;28252;53.336;-6.298;2023-12-20T02:01:26;101542.22;;;18.24;100.00
42621;BME280;28252;53.336;-6.298;2023-12-20T02:02:02;101550.16;;;18.26;100.00
42621;BME280;28252;53.336;-6.298;2023-12-20T02:02:34;101550.31;;;18.24;100.00
42621;BME280;28252;53.336;-6.298;2023-12-20T02:03:09;101543.06;;;18.25;100.00
42621;BME280;28252;53.336;-6.298;2023-12-20T02:03:47;101543.06;;;18.25;100.00
42621;BME280;28252;53.336;-6.298;2023-12-20T02:04:21;101539.38;;;18.26;100.00
42621;BME280;28252;53.336;-6.298;2023-12-20T02:04:54;101537.66;;;18.25;100.00
42621;BME280;28252;53.336;-6.298;2023-12-20T02:05:26;101543.94;;;18.25;100.00
42621;BME280;28252;53.336;-6.298;2023-12-20T02:06:00;101552.88;;;18.26;100.00
42621;BME280;28252;53.336;-6.298;2023-12-20T02:06:36;101543.94;;;18.25;100.00
42621;BME280;28252;53.336;-6.298;2023-12-20T02:07:16;101540.22;;;18.26;100.00
42621;BME280;28252;53.336;-6.298;2023-12-20T02:07:51;101547.47;;;18.26;100.00
42621;BME280;28252;53.336;-6.298;2023-12-20T02:08:25;101539.38;;;18.26;100.00
42621;BME280;28252;53.336;-6.298;2023-12-20T02:09:01;101533.00;;;18.27;100.00
42621;BME280;28252;53.336;-6.298;2023-12-20T02:09:33;101539.38;;;18.26;100.00
42621;BME280;28252;53.336;-6.298;2023-12-20T02:10:04;101559.09;;;18.26;100.00
42621;BME280;28252;53.336;-6.298;2023-12-20T02:10:40;101539.38;;;18.26;100.00
42621;BME280;28252;53.336;-6.298;2023-12-20T02:11:17;101551.88;;;18.27;100.00
42621;BME280;28252;53.336;-6.298;2023-12-20T02:11:49;101551.00;;;18.26;100.00
42621;BME280;28252;53.336;-6.298;2023-12-20T02:12:25;101550.16;;;18.26;100.00
42621;BME280;28252;53.336;-6.298;2023-12-20T02:12:58;101551.88;;;18.27;100.00
42621;BME280;28252;53.336;-6.298;2023-12-20T02:13:30;101551.88;;;18.27;100.00
42621;BME280;28252;53.336;-6.298;2023-12-20T02:14:01;101548.31;;;18.26;100.00
42621;BME280;28252;53.336;-6.298;2023-12-20T02:14:35;101539.38;;;18.26;100.00
42621;BME280;28252;53.336;-6.298;2023-12-20T02:15:08;101533.00;;;18.27;100.00
42621;BME280;28252;53.336;-6.298;2023-12-20T02:15:44;101541.09;;;18.27;100.00
42621;BME280;28252;53.336;-6.298;2023-12-20T02:16:21;101537.41;;;18.28;100.00
42621;BME280;28252;53.336;-6.298;2023-12-20T02:16:53;101531.16;;;18.27;100.00
42621;BME280;28252;53.336;-6.298;2023-12-20T02:17:24;101532.00;;;18.28;100.00
42621;BME280;28252;53.336;-6.298;2023-12-20T02:17:58;101537.41;;;18.28;100.00
42621;BME280;28252;53.336;-6.298;2023-12-20T02:18:34;101535.72;;;18.27;100.00
42621;BME280;28252;53.336;-6.298;2023-12-20T02:19:07;101535.72;;;18.27;100.00
42621;BME280;28252;53.336;-6.298;2023-12-20T02:19:45;101542.78;;;18.28;100.00
42621;BME280;28252;53.336;-6.298;2023-12-20T02:20:19;101530.31;;;18.27;100.00
42621;BME280;28252;53.336;-6.298;2023-12-20T02:20:52;101543.81;;;18.27;100.00
42621;BME280;28252;53.336;-6.298;2023-12-20T02:21:33;101532.13;;;18.26;100.00
42621;BME280;28252;53.336;-6.298;2023-12-20T02:22:10;101538.41;;;18.27;100.00
42621;BME280;28252;53.336;-6.298;2023-12-20T02:22:47;101531.28;;;18.26;100.00
42621;BME280;28252;53.336;-6.298;2023-12-20T02:23:20;101528.59;;;18.26;100.00
42621;BME280;28252;53.336;-6.298;2023-12-20T02:23:56;101539.38;;;18.26;100.00
42621;BME280;28252;53.336;-6.298;2023-12-20T02:24:34;101532.28;;;18.25;100.00
42621;BME280;28252;53.336;-6.298;2023-12-20T02:25:08;101531.44;;;18.24;100.00
42621;BME280;28252;53.336;-6.298;2023-12-20T02:25:44;101526.88;;;18.25;100.00
42621;BME280;28252;53.336;-6.298;2023-12-20T02:26:15;101534.13;;;18.24;100.00
42621;BME280;28252;53.336;-6.298;2023-12-20T02:26:54;101522.50;;;18.24;100.00
42621;BME280;28252;53.336;-6.298;2023-12-20T02:27:28;101526.16;;;18.23;100.00
42621;BME280;28252;53.336;-6.298;2023-12-20T02:28:04;101530.59;;;18.24;100.00
42621;BME280;28252;53.336;-6.298;2023-12-20T02:28:38;101525.19;;;18.24;100.00
42621;BME280;28252;53.336;-6.298;2023-12-20T02:29:15;101530.59;;;18.24;100.00
42621;BME280;28252;53.336;-6.298;2023-12-20T02:29:49;101544.19;;;18.22;100.00
42621;BME280;28252;53.336;-6.298;2023-12-20T02:30:23;101540.66;;;18.22;100.00
42621;BME280;28252;53.336;-6.298;2023-12-20T02:30:54;101542.47;;;18.21;100.00
42621;BME280;28252;53.336;-6.298;2023-12-20T02:31:28;101552.41;;;18.21;100.00
42621;BME280;28252;53.336;-6.298;2023-12-20T02:31:59;101543.34;;;18.22;100.00
42621;BME280;28252;53.336;-6.298;2023-12-20T02:32:35;101544.34;;;18.21;100.00
42621;BME280;28252;53.336;-6.298;2023-12-20T02:33:11;101547.03;;;18.21;100.00
42621;BME280;28252;53.336;-6.298;2023-12-20T02:33:45;101550.69;;;18.20;100.00
42621;BME280;28252;53.336;-6.298;2023-12-20T02:34:19;101544.34;;;18.21;100.00
42621;BME280;28252;53.336;-6.298;2023-12-20T02:34:57;101540.94;;;18.19;100.00
42621;BME280;28252;53.336;-6.298;2023-12-20T02:35:28;101522.91;;;18.19;100.00
42621;BME280;28252;53.336;-6.298;2023-12-20T02:36:02;101552.69;;;18.18;100.00
42621;BME280;28252;53.336;-6.298;2023-12-20T02:36:35;101548.13;;;18.18;100.00
42621;BME280;28252;53.336;-6.298;2023-12-20T02:37:06;101544.59;;;18.18;100.00
42621;BME280;28252;53.336;-6.298;2023-12-20T02:37:42;101544.59;;;18.18;100.00
42621;BME280;28252;53.336;-6.298;2023-12-20T02:38:18;101546.31;;;18.19;100.00
42621;BME280;28252;53.336;-6.298;2023-12-20T02:38:51;101546.44;;;18.17;100.00
42621;BME280;28252;53.336;-6.298;2023-12-20T02:39:26;101548.13;;;18.18;100.00
42621;BME280;28252;53.336;-6.298;2023-12-20T02:39:59;101539.34;;;18.16;100.00
42621;BME280;28252;53.336;-6.298;2023-12-20T02:40:32;101550.13;;;18.16;100.00
42621;BME280;28252;53.336;-6.298;2023-12-20T02:41:50;101554.66;;;18.16;100.00
42621;BME280;28252;53.336;-6.298;2023-12-20T02:42:24;101543.03;;;18.15;100.00
42621;BME280;28252;53.336;-6.298;2023-12-20T02:42:55;101541.31;;;18.14;100.00
42621;BME280;28252;53.336;-6.298;2023-12-20T02:43:28;101541.31;;;18.14;100.00
42621;BME280;28252;53.336;-6.298;2023-12-20T02:44:00;101547.56;;;18.15;100.00
42621;BME280;28252;53.336;-6.298;2023-12-20T02:44:33;101544.16;;;18.13;100.00
42621;BME280;28252;53.336;-6.298;2023-12-20T02:49:38;101554.22;;;18.10;100.00
42621;BME280;28252;53.336;-6.298;2023-12-20T02:50:12;101562.31;;;18.10;100.00
42621;BME280;28252;53.336;-6.298;2023-12-20T02:50:46;101557.91;;;18.09;100.00
42621;BME280;28252;53.336;-6.298;2023-12-20T02:51:26;101560.59;;;18.09;100.00
42621;BME280;28252;53.336;-6.298;2023-12-20T02:52:02;101555.34;;;18.08;100.00
42621;BME280;28252;53.336;-6.298;2023-12-20T02:52:33;101562.56;;;18.07;100.00
42621;BME280;28252;53.336;-6.298;2023-12-20T02:53:04;101553.66;;;18.07;100.00
42621;BME280;28252;53.336;-6.298;2023-12-20T02:53:35;101547.38;;;18.06;100.00
42621;BME280;28252;53.336;-6.298;2023-12-20T02:54:07;101557.19;;;18.07;100.00
42621;BME280;28252;53.336;-6.298;2023-12-20T02:54:40;101557.31;;;18.06;100.00
42621;BME280;28252;53.336;-6.298;2023-12-20T02:55:15;101550.94;;;18.07;100.00
42621;BME280;28252;53.336;-6.298;2023-12-20T02:55:49;101556.47;;;18.05;100.00
42621;BME280;28252;53.336;-6.298;2023-12-20T02:56:22;101558.31;;;18.05;100.00
42621;BME280;28252;53.336;-6.298;2023-12-20T02:56:56;101557.44;;;18.04;100.00
42621;BME280;28252;53.336;-6.298;2023-12-20T02:57:27;101559.31;;;18.04;100.00
42621;BME280;28252;53.336;-6.298;2023-12-20T02:58:01;101551.22;;;18.04;100.00
42621;BME280;28252;53.336;-6.298;2023-12-20T02:58:35;101558.47;;;18.03;100.00
42621;BME280;28252;53.336;-6.298;2023-12-20T02:59:06;101571.94;;;18.03;100.00
42621;BME280;28252;53.336;-6.298;2023-12-20T02:59:39;101554.03;;;18.02;100.00
42621;BME280;28252;53.336;-6.298;2023-12-20T03:00:10;101551.34;;;18.02;100.00
42621;BME280;28252;53.336;-6.298;2023-12-20T03:00:47;101553.19;;;18.02;100.00
42621;BME280;28252;53.336;-6.298;2023-12-20T03:01:18;101560.41;;;18.01;100.00
42621;BME280;28252;53.336;-6.298;2023-12-20T03:01:51;101552.19;;;18.03;100.00
42621;BME280;28252;53.336;-6.298;2023-12-20T03:02:22;101541.53;;;18.01;100.00
42621;BME280;28252;53.336;-6.298;2023-12-20T03:02:59;101554.19;;;18.01;100.00
42621;BME280;28252;53.336;-6.298;2023-12-20T03:03:32;101557.00;;;17.99;100.00
42621;BME280;28252;53.336;-6.298;2023-12-20T03:04:08;101556.16;;;17.99;100.00
42621;BME280;28252;53.336;-6.298;2023-12-20T03:04:43;101561.56;;;17.99;100.00
42621;BME280;28252;53.336;-6.298;2023-12-20T03:05:20;101550.91;;;17.97;100.00
42621;BME280;28252;53.336;-6.298;2023-12-20T03:07:01;101554.56;;;17.96;100.00
42621;BME280;28252;53.336;-6.298;2023-12-20T03:07:33;101553.72;;;17.96;100.00
42621;BME280;28252;53.336;-6.298;2023-12-20T03:08:06;101545.63;;;17.96;100.00
42621;BME280;28252;53.336;-6.298;2023-12-20T03:08:38;101565.34;;;17.96;100.00
42621;BME280;28252;53.336;-6.298;2023-12-20T03:09:11;101554.56;;;17.96;100.00
42621;BME280;28252;53.336;-6.298;2023-12-20T03:09:45;101554.56;;;17.96;100.00
42621;BME280;28252;53.336;-6.298;2023-12-20T03:10:18;101547.50;;;17.95;100.00
42621;BME280;28252;53.336;-6.298;2023-12-20T03:10:52;101544.94;;;17.94;100.00
42621;BME280;28252;53.336;-6.298;2023-12-20T03:11:26;101551.16;;;17.94;100.00
42621;BME280;28252;53.336;-6.298;2023-12-20T03:12:00;101555.72;;;17.94;100.00
42621;BME280;28252;53.336;-6.298;2023-12-20T03:12:33;101548.59;;;17.92;100.00
42621;BME280;28252;53.336;-6.298;2023-12-20T03:13:06;101548.59;;;17.92;100.00
42621;BME280;28252;53.336;-6.298;2023-12-20T03:13:42;101537.81;;;17.92;100.00
42621;BME280;28252;53.336;-6.298;2023-12-20T03:14:15;101549.47;;;17.93;100.00
42621;BME280;28252;53.336;-6.298;2023-12-20T03:14:49;101550.44;;;17.92;100.00
42621;BME280;28252;53.336;-6.298;2023-12-20T03:15:22;101557.69;;;17.91;100.00
42621;BME280;28252;53.336;-6.298;2023-12-20T03:15:53;101560.38;;;17.91;100.00
42621;BME280;28252;53.336;-6.298;2023-12-20T03:16:27;101544.34;;;17.90;100.00
42621;BME280;28252;53.336;-6.298;2023-12-20T03:17:05;101535.25;;;17.91;100.00
42621;BME280;28252;53.336;-6.298;2023-12-20T03:17:41;101538.13;;;17.89;100.00
42621;BME280;28252;53.336;-6.298;2023-12-20T03:18:17;101545.31;;;17.89;100.00
42621;BME280;28252;53.336;-6.298;2023-12-20T03:18:49;101556.97;;;17.89;100.00
42621;BME280;28252;53.336;-6.298;2023-12-20T03:19:20;101542.63;;;17.89;100.00
42621;BME280;28252;53.336;-6.298;2023-12-20T03:19:56;101547.03;;;17.90;100.00
42621;BME280;28252;53.336;-6.298;2023-12-20T03:20:29;101546.31;;;17.88;100.00
42621;BME280;28252;53.336;-6.298;2023-12-20T03:21:05;101545.44;;;17.87;100.00
42621;BME280;28252;53.336;-6.298;2023-12-20T03:21:42;101544.59;;;17.87;100.00
42621;BME280;28252;53.336;-6.298;2023-12-20T03:22:13;101544.59;;;17.87;100.00
42621;BME280;28252;53.336;-6.298;2023-12-20T03:22:48;101539.22;;;17.87;100.00
42621;BME280;28252;53.336;-6.298;2023-12-20T03:23:24;101548.25;;;17.86;100.00
42621;BME280;28252;53.336;-6.298;2023-12-20T03:24:00;101542.84;;;17.86;100.00
42621;BME280;28252;53.336;-6.298;2023-12-20T03:24:31;101547.41;;;17.85;100.00
42621;BME280;28252;53.336;-6.298;2023-12-20T03:25:05;101535.78;;;17.85;100.00
42621;BME280;28252;53.336;-6.298;2023-12-20T03:25:38;101538.47;;;17.85;100.00
42621;BME280;28252;53.336;-6.298;2023-12-20T03:26:10;101537.47;;;17.86;100.00
42621;BME280;28252;53.336;-6.298;2023-12-20T03:26:44;101552.78;;;17.85;100.00
42621;BME280;28252;53.336;-6.298;2023-12-20T03:27:15;101549.38;;;17.83;100.00
42621;BME280;28252;53.336;-6.298;2023-12-20T03:27:48;101539.44;;;17.84;100.00
42621;BME280;28252;53.336;-6.298;2023-12-20T03:28:22;101539.44;;;17.84;100.00
42621;BME280;28252;53.336;-6.298;2023-12-20T03:28:56;101516.19;;;17.83;100.00
42621;BME280;28252;53.336;-6.298;2023-12-20T03:29:27;101536.75;;;17.84;100.00